Time;durP1;ratioP1;P1;durP2;ratioP2;P2;SDS_P1;SDS_P2;PMS_P1;PMS_P2;Temp;Humidity;BMP_temperature;BMP_pressure;BME280_temperature;BME280_humidity;BME280_pressure;Samples;Min_cycle;Max_cycle;Signal;HPM_P1;HPM_P2
2022/05/02 00:01:49;;;;;;;33.83;31.63;;;10.10;89.00;;;;;;5153281;27;20847;-74
2022/05/02 00:04:16;;;;;;;34.10;31.70;;;10.10;89.20;;;;;;5153116;27;20749;-74
2022/05/02 00:06:44;;;;;;;33.00;30.80;;;10.00;89.70;;;;;;5153211;27;20801;-74
2022/05/02 00:09:11;;;;;;;32.45;30.42;;;10.00;90.50;;;;;;5152635;27;20246;-74
2022/05/02 00:11:38;;;;;;;34.17;31.87;;;10.00;90.10;;;;;;5153376;27;20204;-74
2022/05/02 00:14:05;;;;;;;35.17;32.57;;;10.00;89.60;;;;;;5153353;27;20474;-74
2022/05/02 00:16:32;;;;;;;34.78;32.38;;;10.00;89.50;;;;;;5153333;27;20530;-74
2022/05/02 00:18:59;;;;;;;33.47;31.35;;;9.90;89.70;;;;;;5153033;27;20193;-74
2022/05/02 00:21:26;;;;;;;33.25;31.00;;;9.80;90.00;;;;;;5152758;27;20215;-74
2022/05/02 00:23:54;;;;;;;33.15;30.77;;;9.80;90.20;;;;;;5153287;27;20218;-74
2022/05/02 00:26:21;;;;;;;32.80;30.58;;;9.80;90.20;;;;;;5153150;27;20690;-74
2022/05/02 00:28:48;;;;;;;33.15;30.85;;;9.80;89.80;;;;;;5152718;27;20667;-74
2022/05/02 00:31:15;;;;;;;34.05;31.85;;;9.80;89.60;;;;;;5156341;27;20198;-74
2022/05/02 00:33:42;;;;;;;33.00;30.80;;;9.80;89.50;;;;;;5156670;27;20578;-74
2022/05/02 00:36:09;;;;;;;33.63;31.35;;;9.70;89.20;;;;;;5156690;27;20193;-74
2022/05/02 00:38:37;;;;;;;32.83;30.52;;;9.60;89.60;;;;;;5156747;27;20194;-74
2022/05/02 00:41:06;;;;;;;33.47;31.08;;;9.60;89.80;;;;;;5156381;27;20280;-74
2022/05/02 00:43:33;;;;;;;31.70;29.70;;;9.50;89.90;;;;;;5156651;27;20270;-74
2022/05/02 00:46:00;;;;;;;34.15;32.03;;;9.50;89.90;;;;;;5156520;27;20305;-74
2022/05/02 00:48:29;;;;;;;34.20;31.60;;;9.50;90.00;;;;;;5156669;27;20766;-74
2022/05/02 00:50:56;;;;;;;33.70;31.40;;;9.50;90.10;;;;;;5156235;27;20551;-74
2022/05/02 00:53:25;;;;;;;34.15;31.83;;;9.50;90.00;;;;;;5156467;27;20695;-74
2022/05/02 00:55:52;;;;;;;33.35;30.90;;;9.50;89.90;;;;;;5156442;27;20206;-74
2022/05/02 00:58:21;;;;;;;33.08;30.77;;;9.60;89.70;;;;;;5156372;27;20242;-74
2022/05/02 01:00:47;;;;;;;33.17;31.00;;;9.60;89.60;;;;;;5155973;27;20201;-74
2022/05/02 01:03:15;;;;;;;34.40;31.83;;;9.50;89.90;;;;;;5156132;27;20249;-74
2022/05/02 01:08:29;;;;;;;33.60;31.20;;;9.50;90.10;;;;;;5121303;27;20229;-74
2022/05/02 01:10:57;;;;;;;34.72;32.28;;;9.50;90.10;;;;;;5155600;27;20193;-74
2022/05/02 01:13:39;;;;;;;33.70;31.30;;;9.70;89.90;;;;;;5155888;27;20220;-74
2022/05/02 01:16:14;;;;;;;32.72;30.63;;;9.80;88.80;;;;;;5156095;27;20200;-74
2022/05/02 01:18:42;;;;;;;32.33;30.00;;;9.70;88.60;;;;;;5155972;27;20228;-74
2022/05/02 01:21:15;;;;;;;33.47;31.17;;;9.60;88.90;;;;;;5155121;27;20233;-74
2022/05/02 01:23:43;;;;;;;35.33;32.63;;;9.60;89.10;;;;;;5155779;27;20300;-74
2022/05/02 01:26:10;;;;;;;33.85;31.45;;;9.60;88.90;;;;;;5155809;27;20338;-74
2022/05/02 01:28:44;;;;;;;32.92;30.75;;;9.70;88.60;;;;;;5155409;27;20190;-74
2022/05/02 01:31:12;;;;;;;32.55;30.45;;;9.70;88.60;;;;;;5155326;27;20284;-74
2022/05/02 01:33:40;;;;;;;33.65;31.45;;;9.70;88.30;;;;;;5155273;27;20226;-74
2022/05/02 01:36:07;;;;;;;33.60;31.40;;;9.70;88.30;;;;;;5155576;27;20193;-74
2022/05/02 01:38:36;;;;;;;33.10;30.98;;;9.70;88.10;;;;;;5155469;27;20925;-74
2022/05/02 01:41:04;;;;;;;31.90;29.80;;;9.70;88.30;;;;;;5155052;27;20205;-74
2022/05/02 01:43:32;;;;;;;33.65;31.33;;;9.60;89.00;;;;;;5155384;27;20221;-74
2022/05/02 01:45:59;;;;;;;34.55;32.25;;;9.50;89.20;;;;;;5155194;27;20232;-74
2022/05/02 01:48:27;;;;;;;33.08;30.98;;;9.60;88.90;;;;;;5155261;27;20250;-74
2022/05/02 01:50:54;;;;;;;32.90;30.70;;;9.60;88.90;;;;;;5154600;27;20221;-74
2022/05/02 01:53:21;;;;;;;32.45;30.25;;;9.60;88.70;;;;;;5155344;27;20240;-74
2022/05/02 01:55:49;;;;;;;34.03;31.70;;;9.70;88.40;;;;;;5154968;27;20204;-74
2022/05/02 01:58:16;;;;;;;34.60;32.00;;;9.70;88.30;;;;;;5155102;27;20189;-74
2022/05/02 02:00:44;;;;;;;33.70;31.40;;;9.70;88.20;;;;;;5154617;27;20297;-74
2022/05/02 02:03:11;;;;;;;33.05;30.85;;;9.70;88.20;;;;;;5154940;27;20562;-74
2022/05/02 02:05:48;;;;;;;32.97;30.60;;;9.70;88.00;;;;;;5154853;27;20217;-74
2022/05/02 02:08:18;;;;;;;33.42;31.23;;;9.60;88.30;;;;;;5154859;27;20189;-74
2022/05/02 02:10:46;;;;;;;33.58;31.05;;;9.60;88.70;;;;;;5154339;27;20666;-74
2022/05/02 02:13:15;;;;;;;33.53;31.33;;;9.60;88.60;;;;;;5154771;27;20260;-74
2022/05/02 02:15:42;;;;;;;34.17;31.77;;;9.60;88.80;;;;;;5154776;27;20190;-74
2022/05/02 02:18:09;;;;;;;33.08;30.90;;;9.60;88.70;;;;;;5154712;27;20231;-74
2022/05/02 02:20:36;;;;;;;34.08;31.77;;;9.60;89.00;;;;;;5154142;27;20194;-74
2022/05/02 02:23:04;;;;;;;34.25;31.95;;;9.50;89.30;;;;;;5154360;27;20277;-74
2022/05/02 02:25:32;;;;;;;34.95;32.60;;;9.50;89.40;;;;;;5154560;27;20536;-74
2022/05/02 02:28:00;;;;;;;33.17;30.98;;;9.50;89.40;;;;;;5153921;27;20663;-74
2022/05/02 02:30:29;;;;;;;33.75;31.45;;;9.40;89.70;;;;;;5153917;27;20225;-74
2022/05/02 02:32:56;;;;;;;33.65;31.27;;;9.40;90.00;;;;;;5154070;27;20302;-74
2022/05/02 02:35:23;;;;;;;32.88;30.55;;;9.40;90.10;;;;;;5154521;27;20204;-74
2022/05/02 02:37:50;;;;;;;33.15;30.80;;;9.40;90.10;;;;;;5154247;27;20697;-74
2022/05/02 02:40:18;;;;;;;35.28;32.78;;;9.50;89.50;;;;;;5153741;27;20204;-74
2022/05/02 02:42:45;;;;;;;33.35;31.00;;;9.50;89.50;;;;;;5154258;27;20611;-74
2022/05/02 02:45:12;;;;;;;34.63;32.13;;;9.50;89.80;;;;;;5154163;27;20264;-74
2022/05/02 02:47:41;;;;;;;34.17;31.73;;;9.50;89.60;;;;;;5154181;27;20316;-74
2022/05/02 02:50:08;;;;;;;32.97;30.77;;;9.50;89.70;;;;;;5153437;27;20246;-74
2022/05/02 02:52:36;;;;;;;34.03;31.83;;;9.50;89.60;;;;;;5153638;27;20190;-74
2022/05/02 02:55:02;;;;;;;31.98;29.65;;;9.50;89.70;;;;;;5153832;27;20701;-74
2022/05/02 02:57:29;;;;;;;34.00;31.48;;;9.50;89.80;;;;;;5153926;27;20193;-74
2022/05/02 02:59:56;;;;;;;34.85;32.50;;;9.40;90.00;;;;;;5153394;27;20204;-74
2022/05/02 03:02:23;;;;;;;32.70;30.30;;;9.40;90.10;;;;;;5153993;27;20212;-74
2022/05/02 03:07:37;;;;;;;33.20;31.00;;;9.60;89.90;;;;;;5153810;27;20220;-74
2022/05/02 03:10:05;;;;;;;37.38;34.78;;;9.50;89.90;;;;;;5153022;27;20684;-74
2022/05/02 03:12:32;;;;;;;34.03;31.73;;;9.60;89.70;;;;;;5153741;27;20684;-74
2022/05/02 03:14:59;;;;;;;33.60;31.10;;;9.70;89.20;;;;;;5153808;27;20756;-74
2022/05/02 03:17:26;;;;;;;34.22;31.92;;;9.60;89.20;;;;;;5153703;27;20276;-74
2022/05/02 03:19:54;;;;;;;35.30;32.78;;;9.50;89.80;;;;;;5153405;27;20229;-74
2022/05/02 03:22:21;;;;;;;33.50;31.23;;;9.50;90.30;;;;;;5153273;27;20697;-74
2022/05/02 03:24:48;;;;;;;34.70;32.40;;;9.50;90.40;;;;;;5153620;27;20218;-74
2022/05/02 03:27:15;;;;;;;37.17;34.47;;;9.50;90.50;;;;;;5153393;27;20217;-74
2022/05/02 03:29:42;;;;;;;34.53;32.13;;;9.50;90.50;;;;;;5152663;27;20190;-74
2022/05/02 03:32:09;;;;;;;37.47;34.97;;;9.60;90.60;;;;;;5153529;27;20194;-74
2022/05/02 03:34:36;;;;;;;34.42;32.05;;;9.70;90.30;;;;;;5153163;27;20228;-74
2022/05/02 03:37:05;;;;;;;34.38;32.08;;;9.80;89.70;;;;;;5153358;27;20522;-74
2022/05/02 03:39:32;;;;;;;33.88;31.58;;;9.70;89.60;;;;;;5153089;27;20193;-74
2022/05/02 03:41:58;;;;;;;35.85;33.35;;;9.80;89.50;;;;;;5153504;27;20293;-74
2022/05/02 03:44:25;;;;;;;34.05;31.75;;;9.90;89.00;;;;;;5153445;27;20214;-74
2022/05/02 03:46:52;;;;;;;35.50;32.95;;;9.90;88.70;;;;;;5153089;27;20690;-74
2022/05/02 03:49:19;;;;;;;35.30;32.83;;;9.90;89.10;;;;;;5152807;27;20277;-74
2022/05/02 03:51:46;;;;;;;36.13;33.70;;;9.80;89.30;;;;;;5153252;27;20200;-74
2022/05/02 03:54:14;;;;;;;35.90;33.28;;;9.70;89.80;;;;;;5153281;27;20214;-74
2022/05/02 03:56:41;;;;;;;37.58;35.05;;;9.70;90.00;;;;;;5153251;27;20902;-74
2022/05/02 03:59:08;;;;;;;36.15;33.63;;;9.70;90.10;;;;;;5153079;27;20237;-74
2022/05/02 04:01:38;;;;;;;37.33;34.70;;;9.70;90.10;;;;;;5153158;27;20188;-74
2022/05/02 04:04:05;;;;;;;36.90;34.38;;;9.70;90.30;;;;;;5154001;27;20296;-74
2022/05/02 04:06:32;;;;;;;37.33;34.72;;;9.80;89.80;;;;;;5157114;27;20217;-74
2022/05/02 04:08:59;;;;;;;36.80;34.00;;;9.90;89.40;;;;;;5157261;27;20198;-74
2022/05/02 04:11:28;;;;;;;37.60;34.88;;;10.00;88.50;;;;;;5156723;27;20193;-74
2022/05/02 04:13:54;;;;;;;37.17;34.55;;;10.00;88.50;;;;;;5157350;27;20246;-74
2022/05/02 04:16:21;;;;;;;35.70;33.20;;;9.90;88.90;;;;;;5157025;27;20286;-74
2022/05/02 04:18:48;;;;;;;36.60;33.95;;;9.90;89.10;;;;;;5156901;27;20674;-74
2022/05/02 04:21:15;;;;;;;38.35;35.28;;;9.90;89.30;;;;;;5156437;27;20635;-74
2022/05/02 04:23:42;;;;;;;36.10;33.45;;;10.00;89.20;;;;;;5157165;27;20716;-74
2022/05/02 04:26:09;;;;;;;35.35;32.88;;;10.10;89.10;;;;;;5156800;27;20221;-74
2022/05/02 04:28:37;;;;;;;34.80;32.40;;;10.10;88.70;;;;;;5156515;27;20284;-74
2022/05/02 04:31:05;;;;;;;36.67;34.17;;;10.20;88.70;;;;;;5156128;27;20193;-74
2022/05/02 04:33:32;;;;;;;36.28;33.65;;;10.20;88.70;;;;;;5156704;27;20214;-74
2022/05/02 04:35:59;;;;;;;35.40;32.50;;;10.30;88.40;;;;;;5156729;27;20710;-74
2022/05/02 04:38:28;;;;;;;35.13;32.73;;;10.40;88.00;;;;;;5156622;27;20442;-74
2022/05/02 04:40:56;;;;;;;35.58;33.17;;;10.50;88.00;;;;;;5156020;27;20451;-74
2022/05/02 04:43:23;;;;;;;37.57;34.97;;;10.60;87.60;;;;;;5156710;27;20238;-74
2022/05/02 04:45:51;;;;;;;37.80;35.00;;;10.60;87.80;;;;;;5156467;27;20863;-74
2022/05/02 04:48:18;;;;;;;36.57;33.57;;;10.70;87.50;;;;;;5156619;27;20473;-74
2022/05/02 04:50:45;;;;;;;39.93;37.13;;;10.80;86.70;;;;;;5155810;27;20837;-74
2022/05/02 04:53:12;;;;;;;37.00;34.40;;;10.80;86.60;;;;;;5156380;27;20823;-74
2022/05/02 04:55:39;;;;;;;37.33;34.63;;;10.90;86.50;;;;;;5156345;27;20453;-74
2022/05/02 04:58:06;;;;;;;36.20;33.70;;;11.10;85.70;;;;;;5156212;27;20538;-74
2022/05/02 05:00:33;;;;;;;35.90;33.30;;;11.10;85.80;;;;;;5155532;27;20985;-74
2022/05/02 05:03:04;;;;;;;37.33;34.70;;;10.90;86.30;;;;;;5156180;27;20537;-74
2022/05/02 05:05:31;;;;;;;38.40;35.50;;;11.00;86.40;;;;;;5156089;27;20451;-74
2022/05/02 05:07:58;;;;;;;36.73;33.73;;;11.10;86.10;;;;;;5156241;27;20479;-74
2022/05/02 05:10:25;;;;;;;36.27;33.67;;;11.20;86.00;;;;;;5155414;27;21034;-74
2022/05/02 05:13:02;;;;;;;36.03;33.60;;;11.30;85.60;;;;;;5155954;27;20964;-74
2022/05/02 05:16:24;;;;;;;39.67;36.97;;;11.30;85.60;;;;;;5155652;27;20461;-74
2022/05/02 05:19:23;;;;;;;40.20;37.30;;;11.50;84.90;;;;;;5155635;27;20927;-74
2022/05/02 05:22:03;;;;;;;39.00;36.03;;;11.60;84.30;;;;;;5155763;27;20533;-74
2022/05/02 05:25:03;;;;;;;36.60;33.70;;;11.50;84.10;;;;;;5155823;27;20472;-74
2022/05/02 05:27:49;;;;;;;37.30;34.57;;;11.60;84.00;;;;;;5155444;27;20496;-74
2022/05/02 05:30:21;;;;;;;35.93;33.33;;;11.50;84.30;;;;;;5155163;27;20443;-74
2022/05/02 05:32:58;;;;;;;36.30;33.80;;;11.50;84.50;;;;;;5155466;27;20447;-74
2022/05/02 05:35:41;;;;;;;38.63;35.73;;;11.60;84.50;;;;;;5155636;27;20472;-74
2022/05/02 05:38:11;;;;;;;39.27;36.57;;;11.60;84.40;;;;;;5155566;27;20522;-74
2022/05/02 05:40:39;;;;;;;39.07;36.23;;;11.80;84.10;;;;;;5154972;27;20447;-74
2022/05/02 05:43:24;;;;;;;38.07;35.27;;;11.90;83.70;;;;;;5155430;27;20526;-74
2022/05/02 05:46:06;;;;;;;38.40;35.73;;;12.00;83.30;;;;;;5155231;27;20444;-74
2022/05/02 05:48:44;;;;;;;39.00;36.20;;;12.10;83.20;;;;;;5155204;27;20832;-74
2022/05/02 05:51:34;;;;;;;40.30;37.50;;;12.10;83.20;;;;;;5154875;27;20455;-74
2022/05/02 05:54:18;;;;;;;41.27;38.37;;;12.30;82.80;;;;;;5155341;27;20467;-74
2022/05/02 05:56:56;;;;;;;37.10;34.50;;;12.40;82.30;;;;;;5155286;27;20868;-74
2022/05/02 05:59:45;;;;;;;44.57;41.47;;;12.60;82.00;;;;;;5154529;27;20533;-74
2022/05/02 06:02:18;;;;;;;42.70;39.47;;;12.70;81.80;;;;;;5155170;27;20451;-74
2022/05/02 06:04:49;;;;;;;41.47;38.40;;;12.70;81.60;;;;;;5154927;27;20561;-74
2022/05/02 06:07:18;;;;;;;42.17;39.20;;;12.70;81.50;;;;;;5154791;27;20475;-74
2022/05/02 06:09:48;;;;;;;42.00;39.10;;;12.80;81.10;;;;;;5154513;27;20553;-74
2022/05/02 06:12:16;;;;;;;42.30;39.10;;;13.00;80.80;;;;;;5154930;27;20457;-74
2022/05/02 06:20:17;;;;;;;43.47;40.37;;;13.40;80.30;;;;;;5154297;27;20784;-74
2022/05/02 06:22:47;;;;;;;43.83;40.57;;;13.50;79.80;;;;;;5154598;27;20808;-75
2022/05/02 06:25:15;;;;;;;47.10;43.67;;;13.60;79.50;;;;;;5154531;27;20480;-74
2022/05/02 06:27:43;;;;;;;44.10;40.70;;;13.70;79.00;;;;;;5153439;27;20522;-74
2022/05/02 06:30:11;;;;;;;44.27;40.60;;;13.80;78.70;;;;;;5154070;27;20838;-74
2022/05/02 06:32:43;;;;;;;43.87;40.70;;;14.00;78.10;;;;;;5154809;27;20470;-74
2022/05/02 06:35:10;;;;;;;44.90;41.60;;;14.00;77.70;;;;;;5154316;27;20506;-74
2022/05/02 06:37:44;;;;;;;43.67;40.37;;;14.10;77.60;;;;;;5154443;27;20451;-74
2022/05/02 06:40:27;;;;;;;44.43;40.97;;;14.30;76.90;;;;;;5153802;27;20524;-75
2022/05/02 06:43:05;;;;;;;46.83;43.53;;;14.20;76.00;;;;;;5154279;27;20478;-75
2022/05/02 06:45:44;;;;;;;44.70;41.10;;;14.20;75.40;;;;;;5154375;27;20458;-74
2022/05/02 06:48:30;;;;;;;45.33;41.73;;;14.30;76.10;;;;;;5154398;27;20847;-74
2022/05/02 06:51:04;;;;;;;43.07;39.73;;;14.40;75.70;;;;;;5154436;27;20474;-74
2022/05/02 06:54:11;;;;;;;47.40;44.00;;;14.40;76.00;;;;;;5154613;27;20467;-74
2022/05/02 06:56:48;;;;;;;45.63;41.93;;;14.60;75.40;;;;;;5154263;27;20443;-74
2022/05/02 06:59:33;;;;;;;47.57;44.00;;;14.70;75.00;;;;;;5153517;27;20442;-74
2022/05/02 07:02:18;;;;;;;48.70;45.03;;;14.70;74.60;;;;;;5154304;27;20534;-74
2022/05/02 07:04:49;;;;;;;46.63;43.40;;;14.60;74.40;;;;;;5154089;27;20965;-74
2022/05/02 07:07:37;;;;;;;45.07;41.47;;;14.60;74.60;;;;;;5153942;27;20941;-74
2022/05/02 07:10:06;;;;;;;51.90;48.50;;;14.50;75.20;;;;;;5137386;27;20454;-75
2022/05/02 07:12:41;;;;;;;48.47;44.80;;;14.60;75.10;;;;;;5154162;27;20928;-74
2022/05/02 07:15:13;;;;;;;47.00;43.40;;;14.70;75.00;;;;;;5153888;27;20839;-74
2022/05/02 07:18:04;;;;;;;47.60;44.07;;;14.70;74.10;;;;;;5153750;27;20445;-75
2022/05/02 07:20:43;;;;;;;45.07;41.70;;;14.90;74.10;;;;;;5153183;27;20447;-74
2022/05/02 07:23:26;;;;;;;45.93;42.53;;;14.90;73.80;;;;;;5153661;27;20953;-74
2022/05/02 07:25:58;;;;;;;44.13;40.93;;;15.10;73.40;;;;;;5153690;27;20499;-74
2022/05/02 07:28:34;;;;;;;46.27;42.87;;;15.20;73.30;;;;;;5153306;27;20489;-75
2022/05/02 07:31:02;;;;;;;47.57;44.03;;;15.30;72.50;;;;;;5153247;27;20451;-74
2022/05/02 07:33:35;;;;;;;48.77;45.37;;;15.40;72.50;;;;;;5153605;27;20496;-74
2022/05/02 07:36:03;;;;;;;49.67;45.87;;;15.40;72.50;;;;;;5153722;27;20451;-74
2022/05/02 07:38:31;;;;;;;43.10;39.83;;;15.30;72.80;;;;;;5155249;27;20451;-75
2022/05/02 07:43:50;;;;;;;45.50;41.90;;;15.50;72.50;;;;;;5158367;27;20457;-74
2022/05/02 07:46:21;;;;;;;48.20;44.80;;;15.70;72.20;;;;;;5158001;27;20443;-74
2022/05/02 07:48:50;;;;;;;46.50;43.03;;;15.90;71.20;;;;;;5157539;27;20889;-75
2022/05/02 07:51:19;;;;;;;43.63;40.37;;;15.80;70.80;;;;;;5157573;27;20459;-75
2022/05/02 07:53:47;;;;;;;48.00;44.40;;;15.80;71.00;;;;;;5157494;27;20554;-74
2022/05/02 07:56:16;;;;;;;45.53;42.20;;;15.90;70.80;;;;;;5157683;27;20449;-75
2022/05/02 07:58:44;;;;;;;44.50;41.20;;;16.10;70.20;;;;;;5157478;27;20566;-74
2022/05/02 08:01:17;;;;;;;46.17;42.67;;;16.00;70.30;;;;;;5157084;27;20541;-75
2022/05/02 08:03:44;;;;;;;46.57;43.27;;;16.00;70.30;;;;;;5157470;27;20852;-75
2022/05/02 08:06:21;;;;;;;45.80;42.03;;;16.10;70.20;;;;;;5157389;27;20443;-75
2022/05/02 08:08:58;;;;;;;43.77;40.40;;;16.20;69.80;;;;;;5157214;27;20565;-75
2022/05/02 08:11:30;;;;;;;45.17;41.67;;;16.30;69.50;;;;;;5156879;27;20446;-75
2022/05/02 08:14:06;;;;;;;47.90;44.23;;;16.30;69.20;;;;;;5157186;27;20470;-75
2022/05/02 08:16:40;;;;;;;45.33;41.97;;;16.20;68.90;;;;;;5157292;27;20447;-75
2022/05/02 08:19:40;;;;;;;47.87;44.33;;;16.30;68.90;;;;;;5156963;27;20815;-75
2022/05/02 08:28:09;;;;;;;46.50;43.00;;;16.50;67.90;;;;;;5156796;27;20505;-75
2022/05/02 08:30:44;;;;;;;45.97;42.57;;;16.50;67.90;;;;;;5156484;27;20450;-75
2022/05/02 08:33:24;;;;;;;43.27;40.07;;;16.50;67.30;;;;;;5156894;27;20524;-75
2022/05/02 08:36:02;;;;;;;45.17;41.77;;;16.60;67.20;;;;;;5157221;27;20446;-75
2022/05/02 08:38:53;;;;;;;43.50;40.60;;;16.50;67.60;;;;;;5157589;27;20511;-75
2022/05/02 08:41:59;;;;;;;43.33;40.03;;;16.60;67.40;;;;;;5167976;27;20519;-75
2022/05/02 08:44:59;;;;;;;45.03;41.83;;;16.70;67.50;;;;;;5168603;27;20470;-74
2022/05/02 08:48:08;;;;;;;45.57;42.07;;;16.90;66.80;;;;;;5167652;27;20567;-74
2022/05/02 08:51:00;;;;;;;44.33;41.13;;;17.00;65.90;;;;;;5157141;27;20781;-75
2022/05/02 08:54:10;;;;;;;44.37;41.23;;;16.80;66.00;;;;;;5156362;27;20473;-74
2022/05/02 08:57:12;;;;;;;44.93;41.50;;;16.60;66.40;;;;;;5156486;27;20522;-75
2022/05/02 09:00:07;;;;;;;46.37;42.87;;;16.70;66.20;;;;;;5155241;27;20450;-74
2022/05/02 09:03:10;;;;;;;43.73;40.53;;;16.90;65.40;;;;;;5156440;27;20446;-75
2022/05/02 09:05:47;;;;;;;43.77;40.50;;;17.10;64.40;;;;;;5156257;27;20446;-75
2022/05/02 09:09:03;;;;;;;42.93;39.83;;;17.20;64.50;;;;;;5156045;27;20485;-75
2022/05/02 09:11:54;;;;;;;41.10;38.30;;;17.40;64.30;;;;;;5155912;27;20948;-74
2022/05/02 09:14:54;;;;;;;40.87;38.03;;;17.30;63.20;;;;;;5155845;27;20506;-75
2022/05/02 09:18:07;;;;;;;39.57;36.80;;;17.50;62.90;;;;;;5156221;27;20483;-75
2022/05/02 09:20:57;;;;;;;40.47;37.77;;;17.90;61.90;;;;;;5155369;27;20450;-75
2022/05/02 09:24:03;;;;;;;41.77;38.87;;;18.00;61.30;;;;;;5142244;27;20486;-75
2022/05/02 09:27:15;;;;;;;40.37;37.20;;;17.80;62.10;;;;;;5155785;27;20450;-75
2022/05/02 09:30:24;;;;;;;39.10;36.50;;;17.70;62.40;;;;;;5155006;27;20479;-75
2022/05/02 09:33:29;;;;;;;41.00;38.10;;;17.70;62.90;;;;;;5155585;27;20516;-75
2022/05/02 09:36:04;;;;;;;43.00;39.80;;;17.90;62.20;;;;;;5155954;27;20442;-75
2022/05/02 09:38:48;;;;;;;42.50;39.23;;;18.00;62.80;;;;;;5155526;27;20457;-74
2022/05/02 09:41:30;;;;;;;42.00;39.03;;;18.30;61.50;;;;;;5155155;27;20447;-75
2022/05/02 09:50:15;;;;;;;40.30;37.60;;;19.10;58.20;;;;;;5154869;27;20434;-75
2022/05/02 09:53:04;;;;;;;39.00;36.50;;;19.30;57.60;;;;;;5155343;27;20442;-75
2022/05/02 09:58:34;;;;;;;37.57;35.23;;;19.70;55.90;;;;;;5120286;27;20500;-75
2022/05/02 10:01:07;;;;;;;36.40;34.10;;;19.70;56.10;;;;;;5154684;27;20450;-75
2022/05/02 10:03:38;;;;;;;37.40;34.90;;;19.60;55.90;;;;;;5154600;27;20516;-75
2022/05/02 10:06:06;;;;;;;37.40;34.77;;;19.50;56.40;;;;;;5155411;27;20911;-75
2022/05/02 10:08:48;;;;;;;39.47;37.07;;;19.20;57.00;;;;;;5154645;27;20481;-75
2022/05/02 10:11:33;;;;;;;36.53;34.30;;;19.20;56.90;;;;;;5154507;27;20453;-75
2022/05/02 10:14:17;;;;;;;35.33;33.23;;;19.10;56.40;;;;;;5155000;27;20467;-75
2022/05/02 10:16:49;;;;;;;38.30;35.70;;;19.00;56.30;;;;;;5154816;27;20451;-74
2022/05/02 10:19:24;;;;;;;37.63;35.33;;;19.30;55.40;;;;;;5154176;27;20534;-74
2022/05/02 10:22:24;;;;;;;35.50;33.30;;;19.30;55.00;;;;;;5154677;27;20468;-74
2022/05/02 10:25:03;;;;;;;35.20;32.90;;;19.20;55.10;;;;;;5154634;27;20471;-75
2022/05/02 10:27:50;;;;;;;34.13;32.03;;;19.00;56.50;;;;;;5154685;27;20454;-75
2022/05/02 10:30:20;;;;;;;33.60;31.70;;;19.40;55.60;;;;;;5154097;27;20507;-75
2022/05/02 10:32:55;;;;;;;36.20;34.07;;;19.60;54.40;;;;;;5154455;27;20534;-75
2022/05/02 10:35:23;;;;;;;32.63;30.80;;;19.90;54.00;;;;;;5154545;27;20533;-75
2022/05/02 10:37:59;;;;;;;36.13;33.93;;;20.00;53.20;;;;;;5154349;27;20530;-74
2022/05/02 10:40:38;;;;;;;31.83;29.93;;;20.30;53.00;;;;;;5153821;27;20450;-75
2022/05/02 10:43:06;;;;;;;33.97;32.10;;;20.40;51.20;;;;;;5154270;27;20450;-75
2022/05/02 10:45:36;;;;;;;31.67;29.70;;;20.60;50.50;;;;;;5154296;27;20546;-75
2022/05/02 10:48:15;;;;;;;31.80;29.97;;;20.90;49.80;;;;;;5154146;27;20466;-75
2022/05/02 10:51:02;;;;;;;32.50;30.47;;;21.30;49.60;;;;;;5153734;27;20935;-75
2022/05/02 10:53:47;;;;;;;32.07;30.23;;;21.40;48.80;;;;;;5154410;27;20475;-75
2022/05/02 10:56:34;;;;;;;31.40;29.40;;;21.50;48.40;;;;;;5154154;27;20489;-75
2022/05/02 10:59:03;;;;;;;31.87;29.77;;;21.80;49.30;;;;;;5153900;27;20932;-75
2022/05/02 11:02:25;;;;;;;33.37;31.57;;;22.00;48.00;;;;;;5153710;27;20507;-75
2022/05/02 11:05:09;;;;;;;33.50;31.50;;;22.00;48.10;;;;;;5153785;27;20558;-75
2022/05/02 11:07:56;;;;;;;33.60;31.60;;;21.80;48.20;;;;;;5154094;27;20503;-74
2022/05/02 11:10:30;;;;;;;33.43;31.43;;;21.30;48.90;;;;;;5153405;27;20482;-75
2022/05/02 11:13:12;;;;;;;32.17;30.27;;;21.00;49.40;;;;;;5153496;27;20526;-75
2022/05/02 11:15:55;;;;;;;34.53;32.63;;;20.90;49.60;;;;;;5153954;27;20534;-74
2022/05/02 11:21:26;;;;;;;30.30;28.60;;;21.20;49.50;;;;;;5153301;27;20445;-75
2022/05/02 11:24:18;;;;;;;30.87;29.17;;;21.60;49.40;;;;;;5153946;27;20497;-75
2022/05/02 11:26:51;;;;;;;31.80;29.93;;;21.90;48.70;;;;;;5153991;27;20446;-75
2022/05/02 11:29:30;;;;;;;32.57;30.80;;;22.10;48.70;;;;;;5152574;27;20483;-75
2022/05/02 11:31:59;;;;;;;31.20;29.40;;;22.40;48.00;;;;;;5153783;27;20542;-75
2022/05/02 11:34:38;;;;;;;30.60;28.77;;;22.40;46.20;;;;;;5153568;27;21046;-75
2022/05/02 11:37:09;;;;;;;31.70;29.90;;;22.30;46.40;;;;;;5153551;27;20872;-75
2022/05/02 11:39:49;;;;;;;32.13;30.03;;;22.40;46.50;;;;;;5153079;27;20470;-75
2022/05/02 11:42:18;;;;;;;31.20;29.40;;;22.20;46.50;;;;;;5153526;27;20561;-75
2022/05/02 11:45:08;;;;;;;32.53;30.80;;;22.20;47.10;;;;;;5153495;27;20475;-75
2022/05/02 11:47:56;;;;;;;34.47;32.27;;;22.40;47.70;;;;;;5153652;27;20463;-75
2022/05/02 11:50:24;;;;;;;32.90;31.00;;;22.40;47.40;;;;;;5153038;27;20506;-75
2022/05/02 11:52:53;;;;;;;32.97;30.90;;;22.00;48.50;;;;;;5153404;27;20442;-75
2022/05/02 11:55:28;;;;;;;34.50;32.43;;;21.80;49.00;;;;;;5153478;27;20887;-75
2022/05/02 11:58:02;;;;;;;32.30;30.30;;;21.70;49.70;;;;;;5153555;27;20441;-75
2022/05/02 12:00:34;;;;;;;31.67;29.77;;;21.50;49.40;;;;;;5152985;27;20990;-75
2022/05/02 12:03:09;;;;;;;30.53;28.70;;;21.50;49.10;;;;;;5153497;27;20761;-75
2022/05/02 12:05:41;;;;;;;32.23;30.33;;;21.50;49.30;;;;;;5153588;27;20931;-75
2022/05/02 12:08:11;;;;;;;30.53;28.77;;;21.90;48.90;;;;;;5153698;27;20924;-75
2022/05/02 12:10:40;;;;;;;30.70;28.90;;;22.20;48.50;;;;;;5153290;27;20454;-75
2022/05/02 12:13:12;;;;;;;32.80;30.80;;;22.40;47.80;;;;;;5155927;27;20447;-75
2022/05/02 12:15:57;;;;;;;31.87;29.97;;;22.50;47.40;;;;;;5163188;27;20447;-75
2022/05/02 12:18:24;;;;;;;31.93;30.03;;;22.50;47.70;;;;;;5165313;27;20439;-74
2022/05/02 12:20:56;;;;;;;35.23;33.13;;;22.20;47.70;;;;;;5163748;27;20450;-75
2022/05/02 12:23:31;;;;;;;34.00;31.90;;;21.80;48.50;;;;;;5159129;27;20467;-75
2022/05/02 12:25:58;;;;;;;31.57;29.77;;;21.90;48.50;;;;;;5155824;27;20876;-75
2022/05/02 12:28:41;;;;;;;31.40;29.60;;;22.10;48.30;;;;;;5156490;27;20461;-75
2022/05/02 12:31:15;;;;;;;32.23;30.13;;;22.60;47.80;;;;;;5156546;27;20447;-74
2022/05/02 12:33:44;;;;;;;35.10;33.00;;;22.80;46.90;;;;;;5156795;27;20476;-75
2022/05/02 12:36:16;;;;;;;32.60;30.70;;;23.00;46.30;;;;;;5156979;27;20459;-75
2022/05/02 12:38:50;;;;;;;31.10;29.17;;;23.10;46.10;;;;;;5156995;27;20503;-74
2022/05/02 12:41:22;;;;;;;32.03;29.93;;;23.20;45.80;;;;;;5156478;27;20818;-75
2022/05/02 12:43:54;;;;;;;30.07;28.17;;;23.30;46.30;;;;;;5156740;27;20510;-75
2022/05/02 12:46:32;;;;;;;29.70;28.00;;;23.40;45.70;;;;;;5156719;27;20454;-75
2022/05/02 12:49:04;;;;;;;32.27;30.37;;;23.60;45.30;;;;;;5156443;27;20839;-75
2022/05/02 12:51:32;;;;;;;29.30;27.70;;;23.60;44.60;;;;;;5156265;27;21020;-75
2022/05/02 12:54:12;;;;;;;28.50;26.90;;;23.00;45.10;;;;;;5156392;27;20474;-75
2022/05/02 13:00:30;;;;;;;29.53;27.83;;;23.30;46.00;;;;;;5156542;27;20453;-75
2022/05/02 13:02:35;;;;;;;31.57;29.67;;;23.50;45.70;;;;;;5156642;27;20430;-75
2022/05/02 13:05:06;;;;;;;31.53;29.63;;;23.40;45.40;;;;;;5156537;27;20481;-75
2022/05/02 13:07:45;;;;;;;31.23;29.33;;;23.30;45.80;;;;;;5156097;27;20451;-74
2022/05/02 13:10:19;;;;;;;30.80;29.00;;;23.00;46.00;;;;;;5155477;27;20481;-75
2022/05/02 13:13:03;;;;;;;30.20;28.50;;;22.90;46.20;;;;;;5156220;27;20534;-75
2022/05/02 13:15:32;;;;;;;30.70;28.90;;;23.00;46.20;;;;;;5156130;27;20448;-75
2022/05/02 13:18:03;;;;;;;31.97;30.07;;;22.60;46.60;;;;;;5156113;27;20458;-75
2022/05/02 13:20:33;;;;;;;29.70;27.90;;;22.50;46.90;;;;;;5155372;27;20881;-75
2022/05/02 13:23:03;;;;;;;31.60;29.70;;;22.40;46.70;;;;;;5155881;27;20455;-75
2022/05/02 13:26:11;;;;;;;28.67;27.03;;;22.40;46.80;;;;;;5155993;27;20891;-75
2022/05/02 13:28:51;;;;;;;28.90;27.30;;;22.30;46.90;;;;;;5155432;27;20454;-75
2022/05/02 13:31:24;;;;;;;30.40;28.70;;;22.30;46.90;;;;;;5155369;27;20789;-75
2022/05/02 13:33:57;;;;;;;29.70;28.10;;;22.40;46.80;;;;;;5155492;27;20486;-75
2022/05/02 13:36:26;;;;;;;30.87;29.07;;;22.60;46.10;;;;;;5155603;27;20895;-75
2022/05/02 13:39:07;;;;;;;28.80;27.20;;;22.80;45.60;;;;;;5155485;27;20504;-75
2022/05/02 13:41:42;;;;;;;29.10;27.50;;;22.90;45.50;;;;;;5155792;27;20446;-75
2022/05/02 13:44:21;;;;;;;29.83;28.00;;;23.10;45.00;;;;;;5155496;27;20467;-75